Time;durP1;ratioP1;P1;durP2;ratioP2;P2;SDS_P1;SDS_P2;PMS_P1;PMS_P2;Temp;Humidity;BMP_temperature;BMP_pressure;BME280_temperature;BME280_humidity;BME280_pressure;Samples;Min_cycle;Max_cycle;Signal;HPM_P1;HPM_P2
2021/12/11 00:01:46;;;;;;;25.62;6.90;;;;;;;12.16;96.48;150710.44;1805405;77;21079;-63
2021/12/11 00:04:15;;;;;;;21.02;6.62;;;;;;;12.13;96.53;150702.61;1783597;77;21007;-68
2021/12/11 00:06:49;;;;;;;18.40;6.03;;;;;;;12.13;96.99;150701.34;1795095;77;21074;-68
2021/12/11 00:09:23;;;;;;;26.97;7.47;;;;;;;12.15;97.08;150706.53;1756487;80;21521;-68
2021/12/11 00:11:54;;;;;;;26.15;6.58;;;;;;;12.16;97.05;150709.13;1741215;79;21067;-68
2021/12/11 00:14:21;;;;;;;22.52;6.35;;;;;;;12.18;97.30;150715.64;1754996;80;20996;-69
2021/12/11 00:16:48;;;;;;;25.35;7.35;;;;;;;12.21;97.49;150722.09;1759889;80;21019;-68
2021/12/11 00:19:24;;;;;;;17.95;5.87;;;;;;;12.24;97.28;150728.63;1735428;81;20981;-68
2021/12/11 00:21:51;;;;;;;23.77;6.27;;;;;;;12.23;97.55;150727.30;1737591;81;21111;-69
2021/12/11 00:24:26;;;;;;;22.62;6.67;;;;;;;12.23;97.72;150726.03;1736213;81;21068;-64
2021/12/11 00:27:01;;;;;;;22.55;6.50;;;;;;;12.21;97.63;150720.83;1742282;80;21067;-64
2021/12/11 00:29:28;;;;;;;24.55;6.70;;;;;;;12.16;98.00;150709.13;1735696;80;21616;-64
2021/12/11 00:32:00;;;;;;;20.65;7.20;;;;;;;12.16;98.37;150710.44;1735034;80;21628;-63
2021/12/11 00:34:27;;;;;;;18.85;6.62;;;;;;;12.20;98.55;150718.23;1725129;80;21069;-64
2021/12/11 00:36:59;;;;;;;21.25;5.85;;;;;;;12.20;98.54;150719.50;1737413;80;21131;-64
2021/12/11 00:39:26;;;;;;;29.00;6.85;;;;;;;12.19;98.77;150716.91;1736331;80;21056;-64
2021/12/11 00:41:55;;;;;;;23.15;6.33;;;;;;;12.23;99.18;150727.30;1789774;77;21656;-63
2021/12/11 00:44:33;;;;;;;25.88;6.42;;;;;;;12.24;98.96;150729.89;1789325;77;21766;-62
2021/12/11 00:47:23;;;;;;;29.65;7.37;;;;;;;12.22;99.14;150723.44;1796103;77;21044;-65
2021/12/11 00:50:06;;;;;;;32.13;7.53;;;;;;;12.19;99.41;150716.91;1799586;77;21021;-63
2021/12/11 00:52:38;;;;;;;30.27;7.58;;;;;;;12.17;99.66;150711.72;1797940;77;21091;-64
2021/12/11 00:55:21;;;;;;;25.55;6.47;;;;;;;12.14;100.00;150703.94;1789381;77;21088;-64
2021/12/11 00:57:50;;;;;;;22.45;6.67;;;;;;;12.13;100.00;150701.34;1791356;77;21787;-63
2021/12/11 01:00:22;;;;;;;24.77;6.53;;;;;;;12.14;100.00;150703.94;1791546;77;21091;-63
2021/12/11 01:02:53;;;;;;;30.20;7.15;;;;;;;12.14;100.00;150703.94;1795932;77;21005;-63
2021/12/11 01:05:20;;;;;;;27.58;6.53;;;;;;;12.12;100.00;150700.02;1796331;77;21317;-63
2021/12/11 01:07:47;;;;;;;30.27;6.58;;;;;;;12.10;100.00;150694.83;1798490;77;21071;-63
2021/12/11 01:10:22;;;;;;;24.32;7.45;;;;;;;12.09;100.00;150690.95;1736649;81;21148;-63
2021/12/11 01:12:57;;;;;;;23.47;6.33;;;;;;;12.06;100.00;150684.44;1757454;80;20992;-63
2021/12/11 01:15:31;;;;;;;31.17;6.58;;;;;;;12.07;100.00;150685.77;1766330;80;21367;-63
2021/12/11 01:21:05;;;;;;;30.12;6.70;;;;;;;12.05;100.00;150681.84;1738993;82;21088;-64
2021/12/11 01:23:56;;;;;;;;;;;;;;;12.05;100.00;150681.84;1715755;82;21952;-64
2021/12/11 01:26:05;;;;;;;27.48;6.47;;;;;;;12.03;100.00;150677.92;1716097;82;20668;-64
2021/12/11 01:28:34;;;;;;;33.40;6.65;;;;;;;12.00;100.00;150670.09;1735522;81;21032;-64
2021/12/11 01:31:01;;;;;;;27.65;6.25;;;;;;;11.99;100.00;150667.50;1736967;81;21086;-67
2021/12/11 01:33:28;;;;;;;28.20;6.83;;;;;;;11.95;100.00;150657.11;1801858;78;21316;-67
2021/12/11 01:35:54;;;;;;;27.10;6.50;;;;;;;11.94;100.00;150653.25;1796682;78;21118;-68
2021/12/11 01:38:25;;;;;;;21.15;6.00;;;;;;;11.93;100.00;150651.92;1794703;77;21035;-67
2021/12/11 01:41:01;;;;;;;26.40;6.25;;;;;;;11.90;100.00;150644.13;1798194;78;21032;-67
2021/12/11 01:43:30;;;;;;;20.85;6.33;;;;;;;11.87;100.00;150636.34;1797825;78;20992;-67
2021/12/11 01:45:58;;;;;;;24.02;6.62;;;;;;;11.88;100.00;150638.94;1801258;78;21019;-69
2021/12/11 01:48:30;;;;;;;21.12;6.17;;;;;;;11.88;100.00;150638.94;1793197;78;21560;-68
2021/12/11 01:51:11;;;;;;;23.87;6.05;;;;;;;11.86;100.00;150633.75;1798890;78;20951;-67
2021/12/11 01:53:42;;;;;;;19.85;6.30;;;;;;;11.85;100.00;150632.44;1800938;78;22005;-68
2021/12/11 01:56:16;;;;;;;27.65;6.75;;;;;;;11.86;100.00;150633.75;1799003;78;21564;-66
2021/12/11 01:58:55;;;;;;;25.13;5.87;;;;;;;11.82;100.00;150623.31;1793958;78;21048;-66
2021/12/11 02:01:23;;;;;;;27.27;7.03;;;;;;;11.82;100.00;150623.31;1735705;82;21526;-69
2021/12/11 02:03:52;;;;;;;32.78;5.97;;;;;;;11.83;100.00;150625.97;1732684;82;21622;-67
2021/12/11 02:06:19;;;;;;;24.35;6.45;;;;;;;11.82;100.00;150623.31;1731374;80;21120;-66
2021/12/11 02:08:46;;;;;;;14.90;5.55;;;;;;;11.79;100.00;150615.53;1760958;79;21415;-66
2021/12/11 02:11:17;;;;;;;21.07;5.50;;;;;;;11.79;100.00;150615.53;1756398;79;21006;-67
2021/12/11 02:13:51;;;;;;;18.45;5.72;;;;;;;11.82;100.00;150623.31;1747726;80;21048;-67
2021/12/11 02:16:28;;;;;;;24.10;6.17;;;;;;;11.84;100.00;150629.83;1744266;80;21045;-67
2021/12/11 02:18:59;;;;;;;27.93;6.20;;;;;;;11.84;100.00;150628.56;1717251;80;21581;-66
2021/12/11 02:21:31;;;;;;;19.45;5.12;;;;;;;11.83;100.00;150625.97;1755694;80;21014;-66
2021/12/11 02:24:05;;;;;;;25.32;6.22;;;;;;;11.84;100.00;150629.83;1719348;80;20997;-66
2021/12/11 02:26:35;;;;;;;20.20;5.92;;;;;;;11.83;100.00;150625.97;1751057;81;21790;-66
2021/12/11 02:29:30;;;;;;;21.33;5.55;;;;;;;11.83;100.00;150625.97;1749938;80;20989;-68
2021/12/11 02:32:02;;;;;;;25.68;5.62;;;;;;;11.85;100.00;150631.16;1745912;80;21029;-67
2021/12/11 02:34:50;;;;;;;16.73;4.83;;;;;;;11.82;100.00;150624.64;1741224;80;21061;-67
2021/12/11 02:37:28;;;;;;;17.05;4.92;;;;;;;11.82;100.00;150623.31;1745314;80;21554;-68
2021/12/11 02:40:00;;;;;;;12.37;3.77;;;;;;;11.83;100.00;150625.97;1740275;81;21116;-67
2021/12/11 02:42:35;;;;;;;11.97;3.87;;;;;;;11.80;100.00;150618.12;1750114;79;21095;-66
2021/12/11 02:45:05;;;;;;;;;;;;;;;11.74;100.00;150605.16;1757835;79;21056;-68
2021/12/11 02:47:46;;;;;;;17.30;3.47;;;;;;;11.72;100.00;150599.97;1752088;80;20257;-67
2021/12/11 02:50:24;;;;;;;19.55;4.83;;;;;;;11.65;100.00;150581.80;1746988;80;21064;-67
2021/12/11 02:53:09;;;;;;;21.90;3.72;;;;;;;11.59;100.00;150567.50;1720992;80;22143;-69
2021/12/11 02:55:41;;;;;;;11.85;3.30;;;;;;;11.56;100.00;150559.72;1744958;80;21044;-66
2021/12/11 02:58:18;;;;;;;22.22;3.33;;;;;;;11.50;100.00;150542.81;1740639;80;21072;-66
2021/12/11 03:00:57;;;;;;;20.02;3.47;;;;;;;11.45;100.00;150532.44;1742448;81;21292;-68
2021/12/11 03:03:34;;;;;;;19.48;3.92;;;;;;;11.45;100.00;150532.44;1743198;80;21035;-67
2021/12/11 03:06:09;;;;;;;17.60;3.92;;;;;;;11.44;100.00;150529.84;1728982;82;22548;-66
2021/12/11 03:08:32;;;;;;;21.82;4.37;;;;;;;11.44;100.00;150529.84;1735687;81;20985;-68
2021/12/11 03:11:10;;;;;;;19.20;3.92;;;;;;;11.44;100.00;150528.53;1799938;77;21089;-67
2021/12/11 03:13:39;;;;;;;19.32;4.05;;;;;;;11.42;100.00;150523.34;1805481;77;21054;-67
2021/12/11 03:16:07;;;;;;;15.98;3.00;;;;;;;11.42;100.00;150523.34;1805828;77;21066;-67
2021/12/11 03:18:36;;;;;;;22.17;3.27;;;;;;;11.42;100.00;150523.34;1812275;77;21276;-68
2021/12/11 03:21:03;;;;;;;27.75;3.65;;;;;;;11.42;100.00;150523.34;1801176;77;21030;-67
2021/12/11 03:23:29;;;;;;;14.53;2.80;;;;;;;11.40;100.00;150519.47;1808474;77;21072;-63
2021/12/11 03:25:56;;;;;;;18.10;3.37;;;;;;;11.37;100.00;150511.64;1815888;77;21063;-64
2021/12/11 03:28:22;;;;;;;15.90;2.98;;;;;;;11.36;100.00;150509.05;1805382;77;20991;-63
2021/12/11 03:30:57;;;;;;;14.23;2.70;;;;;;;11.37;100.00;150510.36;1800997;78;21448;-63
2021/12/11 03:33:21;;;;;;;21.95;2.87;;;;;;;11.35;100.00;150505.17;1810506;77;21348;-63
2021/12/11 03:35:48;;;;;;;17.67;3.83;;;;;;;11.35;100.00;150506.44;1813802;77;21016;-64
2021/12/11 03:38:16;;;;;;;21.52;2.60;;;;;;;11.37;100.00;150511.64;1808940;77;21505;-63
2021/12/11 03:40:42;;;;;;;15.15;2.25;;;;;;;11.37;100.00;150510.36;1803262;77;21746;-63
2021/12/11 03:43:12;;;;;;;13.50;2.08;;;;;;;11.38;100.00;150514.23;1803134;78;21369;-63
2021/12/11 03:45:41;;;;;;;13.58;2.58;;;;;;;11.41;100.00;150522.06;1805026;78;21452;-63
2021/12/11 03:48:18;;;;;;;13.75;2.50;;;;;;;11.37;100.00;150510.36;1810775;77;21522;-65
2021/12/11 03:50:45;;;;;;;20.72;2.70;;;;;;;11.33;100.00;150501.27;1803358;78;21083;-65
2021/12/11 03:53:12;;;;;;;11.93;2.22;;;;;;;11.33;100.00;150501.27;1812280;77;21056;-65
2021/12/11 03:55:47;;;;;;;14.83;2.60;;;;;;;11.30;100.00;150493.47;1812700;77;21132;-64
2021/12/11 03:58:14;;;;;;;17.02;2.33;;;;;;;11.28;100.00;150488.28;1802759;77;28195;-65
2021/12/11 04:00:59;;;;;;;21.27;3.30;;;;;;;11.31;100.00;150496.06;1797323;78;21258;-64
2021/12/11 04:03:29;;;;;;;21.63;2.67;;;;;;;11.32;100.00;150498.66;1806576;77;21022;-63
2021/12/11 04:05:57;;;;;;;13.78;2.60;;;;;;;11.35;100.00;150506.44;1808710;77;22159;-62
2021/12/11 04:08:27;;;;;;;15.85;2.00;;;;;;;11.35;100.00;150506.44;1792949;79;21551;-63
2021/12/11 04:10:54;;;;;;;13.83;2.25;;;;;;;11.34;100.00;150503.86;1794777;77;21072;-63
2021/12/11 04:13:22;;;;;;;18.37;2.42;;;;;;;11.34;100.00;150503.86;1789013;77;21727;-63
2021/12/11 04:15:51;;;;;;;16.45;2.33;;;;;;;11.33;100.00;150501.27;1787810;77;21103;-65
2021/12/11 04:18:19;;;;;;;9.53;2.05;;;;;;;11.34;100.00;150503.86;1792526;77;20989;-63
2021/12/11 04:20:47;;;;;;;17.67;2.62;;;;;;;11.39;100.00;150516.88;1793882;77;21117;-63
2021/12/11 04:23:14;;;;;;;18.48;2.25;;;;;;;11.37;100.00;150511.64;1795343;77;21015;-63
2021/12/11 04:25:44;;;;;;;15.25;2.67;;;;;;;11.40;100.00;150519.47;1790113;77;21131;-64
2021/12/11 04:28:12;;;;;;;16.20;2.55;;;;;;;11.45;100.00;150532.44;1800763;77;21011;-64
2021/12/11 04:30:40;;;;;;;16.73;2.62;;;;;;;11.49;100.00;150540.22;1787887;77;21300;-63
2021/12/11 04:33:06;;;;;;;12.37;2.47;;;;;;;11.52;100.00;150548.02;1793552;77;23006;-63
2021/12/11 04:35:34;;;;;;;13.80;2.27;;;;;;;11.54;100.00;150554.53;1796987;77;21503;-64
2021/12/11 04:38:04;;;;;;;16.55;2.40;;;;;;;11.58;100.00;150564.91;1789689;77;21048;-64
2021/12/11 04:40:36;;;;;;;17.42;2.45;;;;;;;11.62;100.00;150574.02;1795162;77;21056;-65
2021/12/11 04:43:09;;;;;;;25.72;3.45;;;;;;;11.63;100.00;150576.61;1750731;80;21068;-64
2021/12/11 04:45:45;;;;;;;15.23;2.20;;;;;;;11.66;100.00;150583.06;1749128;80;21092;-63
2021/12/11 04:48:34;;;;;;;13.83;2.72;;;;;;;11.68;100.00;150589.58;1738223;80;21120;-64
2021/12/11 04:51:09;;;;;;;20.05;2.83;;;;;;;11.69;100.00;150592.17;1745958;80;21060;-64
2021/12/11 05:04:41;;;;;;;19.70;3.25;;;;;;;11.52;100.00;150549.33;1796669;77;21485;-64
2021/12/11 05:10:37;;;;;;;21.93;2.85;;;;;;;11.39;100.00;150516.88;1796901;78;21055;-65
2021/12/11 05:12:44;;;;;;;25.12;3.05;;;;;;;11.31;100.00;150496.06;1798324;77;21011;-63
2021/12/11 05:15:22;;;;;;;22.98;2.87;;;;;;;11.23;100.00;150476.59;1797815;77;21527;-67
2021/12/11 05:17:49;;;;;;;20.70;3.25;;;;;;;11.20;100.00;150467.53;1787332;77;21013;-66
2021/12/11 05:20:18;;;;;;;22.37;2.90;;;;;;;11.15;100.00;150457.11;1801992;77;21032;-65
2021/12/11 05:22:45;;;;;;;17.52;2.85;;;;;;;11.12;100.00;150448.06;1800152;77;21068;-63
2021/12/11 05:25:14;;;;;;;22.98;2.60;;;;;;;11.09;100.00;150441.55;1792009;77;21103;-63
2021/12/11 05:27:43;;;;;;;22.37;3.15;;;;;;;11.05;100.00;150431.16;1799641;77;21050;-62
2021/12/11 05:30:15;;;;;;;24.98;3.10;;;;;;;11.00;100.00;150418.20;1804367;77;21079;-62
2021/12/11 05:32:43;;;;;;;18.45;3.40;;;;;;;11.00;100.00;150418.20;1806796;77;21024;-63
2021/12/11 05:35:10;;;;;;;17.80;2.90;;;;;;;11.03;100.00;150425.98;1802036;77;21498;-63
2021/12/11 05:37:36;;;;;;;17.87;3.37;;;;;;;11.09;100.00;150440.28;1807803;77;21128;-63
2021/12/11 05:40:06;;;;;;;26.50;2.77;;;;;;;11.11;100.00;150445.45;1791591;78;21079;-63
2021/12/11 05:42:33;;;;;;;16.12;2.70;;;;;;;11.12;100.00;150449.33;1793250;77;21462;-63
2021/12/11 05:45:00;;;;;;;21.97;2.70;;;;;;;11.13;100.00;150451.92;1798937;77;21580;-63
2021/12/11 05:47:26;;;;;;;16.65;2.62;;;;;;;11.08;100.00;150438.94;1807094;77;21064;-63
2021/12/11 05:49:57;;;;;;;16.12;2.95;;;;;;;11.02;100.00;150423.37;1804341;77;21666;-63
2021/12/11 05:52:23;;;;;;;16.52;2.95;;;;;;;10.98;100.00;150414.28;1808235;77;21004;-62
2021/12/11 05:54:51;;;;;;;18.98;3.00;;;;;;;10.93;100.00;150401.31;1801036;77;22095;-62
2021/12/11 05:57:19;;;;;;;17.75;2.75;;;;;;;10.86;100.00;150384.44;1805577;77;21509;-64
2021/12/11 05:59:46;;;;;;;13.75;2.87;;;;;;;10.83;100.00;150375.33;1794268;78;21581;-68
2021/12/11 06:02:18;;;;;;;13.40;2.70;;;;;;;10.81;100.00;150370.14;1799261;77;21131;-67
2021/12/11 06:04:48;;;;;;;16.62;3.15;;;;;;;10.78;100.00;150363.69;1810004;77;21852;-69
2021/12/11 06:07:15;;;;;;;18.75;3.25;;;;;;;10.82;100.00;150372.73;1802808;77;21028;-70
2021/12/11 06:09:45;;;;;;;22.40;3.30;;;;;;;10.84;100.00;150379.23;1804541;77;21450;-68
2021/12/11 06:12:13;;;;;;;15.35;3.22;;;;;;;10.86;100.00;150384.44;1799379;77;21031;-68
2021/12/11 06:14:40;;;;;;;16.45;2.92;;;;;;;10.88;100.00;150389.63;1794259;77;21114;-70
2021/12/11 06:17:07;;;;;;;17.20;2.75;;;;;;;10.92;100.00;150397.41;1800498;77;21033;-66
2021/12/11 06:19:34;;;;;;;12.93;2.25;;;;;;;10.94;100.00;150403.91;1788645;77;21138;-64
2021/12/11 06:22:01;;;;;;;7.95;2.08;;;;;;;10.98;100.00;150413.00;1789240;77;21145;-65
2021/12/11 06:24:28;;;;;;;11.83;1.92;;;;;;;11.00;100.00;150418.20;1803467;77;21076;-65
2021/12/11 06:26:55;;;;;;;10.28;2.33;;;;;;;10.99;100.00;150415.59;1799443;77;21080;-64
2021/12/11 06:29:22;;;;;;;16.07;2.50;;;;;;;10.98;100.00;150413.00;1790368;77;21046;-65
2021/12/11 06:31:50;;;;;;;11.90;2.22;;;;;;;10.99;100.00;150415.59;1793942;77;21023;-66
2021/12/11 06:34:17;;;;;;;8.68;1.67;;;;;;;11.01;99.51;150422.06;1801705;77;21068;-65
2021/12/11 06:36:43;;;;;;;9.03;1.80;;;;;;;10.99;98.43;150416.87;1793078;77;21001;-65
2021/12/11 06:39:14;;;;;;;8.43;2.20;;;;;;;11.00;98.13;150418.20;1790678;77;21535;-67
2021/12/11 06:41:42;;;;;;;11.57;2.50;;;;;;;11.02;97.49;150423.37;1796421;79;21017;-65
2021/12/11 06:44:10;;;;;;;11.70;2.72;;;;;;;11.00;97.23;150419.47;1795848;79;21019;-65
2021/12/11 06:46:37;;;;;;;14.30;2.67;;;;;;;11.04;97.24;150428.58;1795572;77;21030;-66
2021/12/11 06:49:04;;;;;;;17.73;2.58;;;;;;;11.06;97.00;150433.77;1794741;77;21096;-65
2021/12/11 06:51:31;;;;;;;6.45;2.70;;;;;;;11.05;96.90;150431.16;1796966;77;21530;-65
2021/12/11 06:54:02;;;;;;;13.62;2.70;;;;;;;11.03;96.55;150425.98;1799714;77;21013;-66
2021/12/11 06:56:29;;;;;;;10.10;2.10;;;;;;;11.01;96.52;150422.06;1791538;77;21043;-65
2021/12/11 06:58:56;;;;;;;13.40;2.92;;;;;;;11.01;96.66;150420.78;1793539;77;21501;-64
2021/12/11 07:01:25;;;;;;;7.90;2.00;;;;;;;11.01;96.78;150420.78;1799669;77;36457;-65
2021/12/11 07:03:52;;;;;;;7.53;1.80;;;;;;;11.03;96.81;150425.98;1796273;77;21123;-67
2021/12/11 07:06:19;;;;;;;6.37;2.17;;;;;;;11.04;96.29;150428.58;1789977;77;21048;-66
2021/12/11 07:08:47;;;;;;;8.20;1.60;;;;;;;11.04;96.02;150429.84;1789864;77;21013;-65
2021/12/11 07:11:16;;;;;;;11.00;2.20;;;;;;;11.06;95.57;150433.77;1779985;79;21038;-66
2021/12/11 07:13:43;;;;;;;9.00;2.00;;;;;;;11.08;94.52;150438.94;1785973;79;21527;-65
2021/12/11 07:16:10;;;;;;;6.35;1.70;;;;;;;11.08;94.34;150438.94;1781966;78;21122;-65
2021/12/11 07:18:37;;;;;;;7.37;2.00;;;;;;;11.09;93.45;150440.28;1720087;81;21509;-66
2021/12/11 07:21:04;;;;;;;8.58;2.15;;;;;;;11.11;93.04;150446.73;1782861;78;21088;-66
2021/12/11 07:23:33;;;;;;;6.03;1.70;;;;;;;11.09;92.50;150440.28;1779710;78;21093;-65
2021/12/11 07:26:05;;;;;;;4.37;2.10;;;;;;;11.07;92.58;150435.08;1786672;78;21240;-67
2021/12/11 07:28:32;;;;;;;6.33;1.45;;;;;;;11.09;92.35;150440.28;1782391;78;21208;-66
2021/12/11 07:30:59;;;;;;;6.03;1.82;;;;;;;11.09;92.05;150441.55;1784891;78;21398;-64
2021/12/11 07:33:26;;;;;;;4.85;1.80;;;;;;;11.12;91.94;150449.33;1782546;78;21687;-66
2021/12/11 07:35:52;;;;;;;8.15;1.82;;;;;;;11.11;91.56;150446.73;1782366;78;21672;-67
2021/12/11 07:38:20;;;;;;;10.23;1.80;;;;;;;11.12;91.73;150449.33;1784315;78;21040;-66
2021/12/11 07:40:55;;;;;;;4.85;1.62;;;;;;;11.16;91.79;150458.44;1785263;78;21953;-66
2021/12/11 07:43:25;;;;;;;6.47;1.87;;;;;;;11.16;91.70;150459.75;1782901;78;22189;-68
2021/12/11 07:45:52;;;;;;;14.10;2.20;;;;;;;11.15;91.80;150457.11;1784920;78;21097;-66
2021/12/11 07:48:19;;;;;;;7.37;1.55;;;;;;;11.16;92.09;150459.75;1786995;78;21094;-67
2021/12/11 07:50:46;;;;;;;3.83;1.30;;;;;;;11.24;92.31;150479.19;1780727;78;21013;-68
2021/12/11 07:53:13;;;;;;;4.78;1.50;;;;;;;11.35;91.71;150506.44;1782942;78;21106;-67
2021/12/11 07:55:40;;;;;;;3.95;1.40;;;;;;;11.37;91.17;150511.64;1776685;78;21080;-68
2021/12/11 07:58:07;;;;;;;6.42;1.45;;;;;;;11.41;90.38;150522.06;1785534;78;21087;-68
2021/12/11 08:00:36;;;;;;;6.37;1.47;;;;;;;11.44;90.26;150529.84;1783895;78;21060;-69
2021/12/11 08:03:03;;;;;;;5.17;1.17;;;;;;;11.50;89.94;150544.14;1786874;78;21009;-67
2021/12/11 08:05:30;;;;;;;3.83;1.25;;;;;;;11.57;89.61;150560.98;1783515;78;21123;-68
2021/12/11 08:08:02;;;;;;;5.95;1.40;;;;;;;11.63;88.93;150576.61;1781462;78;21586;-68
2021/12/11 08:10:30;;;;;;;4.20;1.50;;;;;;;11.65;88.42;150581.80;1787770;77;21034;-67
2021/12/11 08:12:58;;;;;;;5.47;1.40;;;;;;;11.70;88.18;150594.78;1792599;77;21000;-69
2021/12/11 08:15:25;;;;;;;4.70;1.10;;;;;;;11.81;88.08;150620.72;1797814;77;21604;-67
2021/12/11 08:17:54;;;;;;;4.25;1.35;;;;;;;11.88;87.33;150638.94;1794798;77;21193;-67
2021/12/11 08:20:30;;;;;;;5.62;2.27;;;;;;;11.86;86.38;150633.75;1789868;77;21060;-67
2021/12/11 08:22:57;;;;;;;6.75;1.82;;;;;;;11.83;86.15;150625.97;1795253;77;21604;-67
2021/12/11 08:25:26;;;;;;;5.00;1.27;;;;;;;11.84;85.93;150629.83;1793857;77;21631;-67
2021/12/11 08:27:54;;;;;;;2.08;1.42;;;;;;;11.85;85.65;150631.16;1722979;81;21163;-66
2021/12/11 08:30:23;;;;;;;3.67;1.40;;;;;;;11.85;85.62;150632.44;1718826;81;21136;-66
2021/12/11 08:32:50;;;;;;;4.22;1.98;;;;;;;11.89;85.73;150641.53;1755011;80;21102;-69
2021/12/11 08:35:17;;;;;;;4.72;1.80;;;;;;;11.94;85.74;150654.52;1754249;79;21159;-69
2021/12/11 08:37:48;;;;;;;5.30;1.90;;;;;;;11.96;85.92;150659.70;1725826;80;21006;-67
2021/12/11 08:40:19;;;;;;;5.55;2.12;;;;;;;12.01;86.39;150672.73;1755851;79;21151;-68
2021/12/11 08:42:47;;;;;;;6.80;1.80;;;;;;;12.14;86.77;150705.20;1752925;79;21954;-67
2021/12/11 08:45:22;;;;;;;6.10;2.20;;;;;;;12.24;86.36;150729.89;1723118;80;21131;-66
2021/12/11 08:47:43;;;;;;;7.80;2.20;;;;;;;12.31;86.26;150748.11;1729192;80;21064;-67
2021/12/11 08:50:13;;;;;;;5.28;1.92;;;;;;;12.39;85.88;150767.61;1754707;79;21064;-68
2021/12/11 08:52:42;;;;;;;6.85;2.05;;;;;;;12.43;85.48;150776.67;1755903;80;21127;-66
2021/12/11 08:55:13;;;;;;;6.85;1.90;;;;;;;12.47;85.65;150787.06;1722201;80;21255;-67
2021/12/11 08:57:41;;;;;;;3.37;1.80;;;;;;;12.51;85.04;150796.17;1723674;81;21041;-67
2021/12/11 09:00:19;;;;;;;7.10;2.40;;;;;;;12.48;84.39;150789.66;1787183;77;21021;-67
2021/12/11 09:02:54;;;;;;;5.58;1.87;;;;;;;12.42;84.25;150774.08;1790261;77;20976;-66
2021/12/11 09:05:39;;;;;;;4.22;1.85;;;;;;;12.39;84.08;150767.61;1792497;77;21072;-66
2021/12/11 09:08:12;;;;;;;3.80;1.87;;;;;;;12.35;83.83;150755.91;1760427;77;37488;-66
2021/12/11 09:10:55;;;;;;;2.37;1.50;;;;;;;12.38;83.83;150763.69;1738941;80;21086;-67
2021/12/11 09:13:29;;;;;;;2.95;1.60;;;;;;;12.46;83.80;150785.80;1749168;80;21234;-66
2021/12/11 09:16:30;;;;;;;4.75;1.70;;;;;;;12.53;82.83;150802.69;1751359;80;21561;-66
2021/12/11 09:19:12;;;;;;;4.28;1.72;;;;;;;12.57;82.28;150813.08;1753309;80;21527;-67
2021/12/11 09:21:57;;;;;;;5.25;1.80;;;;;;;12.56;80.75;150810.48;1744337;80;21103;-65
2021/12/11 09:24:43;;;;;;;5.37;1.57;;;;;;;12.51;80.44;150797.50;1745124;80;21029;-65
2021/12/11 09:27:18;;;;;;;6.22;1.60;;;;;;;12.44;80.00;150779.27;1713700;80;22196;-65
2021/12/11 09:29:59;;;;;;;3.17;1.40;;;;;;;12.36;80.17;150758.50;1748305;80;21092;-66
2021/12/11 09:32:40;;;;;;;3.27;1.20;;;;;;;12.31;80.41;150748.11;1744920;80;21052;-67
2021/12/11 09:35:24;;;;;;;3.50;1.30;;;;;;;12.29;80.21;150742.92;1747433;80;21071;-67
2021/12/11 09:37:56;;;;;;;2.60;1.40;;;;;;;12.30;80.06;150745.52;1746558;80;20968;-67
2021/12/11 09:40:38;;;;;;;5.90;1.50;;;;;;;12.26;79.98;150735.09;1750251;80;21052;-66
2021/12/11 09:43:05;;;;;;;3.35;1.30;;;;;;;12.21;80.26;150722.09;1747466;80;21099;-68
2021/12/11 09:45:37;;;;;;;4.00;1.60;;;;;;;12.20;80.56;150719.50;1750277;80;21501;-66
2021/12/11 09:48:08;;;;;;;5.10;1.55;;;;;;;12.19;80.55;150716.91;1750489;80;21513;-70
2021/12/11 09:50:46;;;;;;;4.10;1.17;;;;;;;12.18;80.73;150714.31;1685054;82;21139;-69
2021/12/11 09:53:08;;;;;;;3.87;1.42;;;;;;;12.18;80.52;150714.31;1685901;83;21496;-67
2021/12/11 09:55:37;;;;;;;6.12;1.40;;;;;;;12.16;80.76;150709.13;1747667;80;21111;-67
2021/12/11 09:58:08;;;;;;;3.17;1.27;;;;;;;12.15;80.77;150706.53;1748390;80;21359;-69
2021/12/11 10:00:45;;;;;;;5.12;1.30;;;;;;;12.12;81.02;150698.73;1750038;80;21125;-69
2021/12/11 10:03:13;;;;;;;5.75;1.75;;;;;;;12.11;81.05;150696.14;1737028;80;21086;-67
2021/12/11 10:05:46;;;;;;;1.80;1.10;;;;;;;12.09;81.10;150692.22;1691902;83;21138;-69
2021/12/11 10:08:36;;;;;;;3.50;1.10;;;;;;;12.07;80.87;150685.77;1706706;82;21107;-68
2021/12/11 10:11:21;;;;;;;5.53;1.20;;;;;;;12.06;80.61;150684.44;1693720;82;21152;-67
2021/12/11 10:13:56;;;;;;;8.10;1.32;;;;;;;12.03;80.30;150677.92;1700026;82;21143;-67
2021/12/11 10:16:30;;;;;;;7.28;1.15;;;;;;;12.00;80.20;150670.09;1694753;82;21080;-67
2021/12/11 10:18:57;;;;;;;5.00;1.65;;;;;;;11.96;80.00;150658.44;1693474;82;21067;-66
2021/12/11 10:21:31;;;;;;;2.55;1.05;;;;;;;11.89;80.35;150642.81;1695217;82;21540;-67
2021/12/11 10:23:59;;;;;;;;;;;;;;;11.84;80.67;150628.56;1694819;82;21142;-68
2021/12/11 10:26:26;;;;;;;6.87;1.22;;;;;;;11.82;81.07;150623.31;1691921;82;21103;-65
2021/12/11 10:28:57;;;;;;;4.33;1.52;;;;;;;11.80;81.35;150619.45;1695226;82;21076;-66
2021/12/11 10:31:34;;;;;;;7.28;1.22;;;;;;;11.82;81.52;150623.31;1698221;82;21018;-67
2021/12/11 10:34:05;;;;;;;4.67;1.45;;;;;;;11.84;81.51;150629.83;1691384;82;21578;-67
2021/12/11 10:36:36;;;;;;;6.42;1.10;;;;;;;11.85;81.44;150632.44;1696621;82;21136;-67
2021/12/11 10:39:06;;;;;;;7.40;1.70;;;;;;;11.89;81.52;150641.53;1697155;82;21615;-67
2021/12/11 10:41:33;;;;;;;7.35;1.30;;;;;;;11.99;81.59;150667.50;1690770;82;21024;-68
2021/12/11 10:44:07;;;;;;;5.20;1.42;;;;;;;12.09;81.35;150692.22;1694330;82;21068;-68
2021/12/11 10:46:45;;;;;;;5.30;1.37;;;;;;;12.17;81.37;150711.72;1692608;82;21065;-66
2021/12/11 10:49:12;;;;;;;3.58;1.30;;;;;;;12.28;81.36;150739.00;1698214;82;21140;-68
2021/12/11 10:51:44;;;;;;;5.00;1.55;;;;;;;12.40;80.93;150768.89;1697991;82;21159;-67
2021/12/11 10:54:13;;;;;;;7.72;1.80;;;;;;;12.47;80.86;150787.06;1748089;80;21423;-69
2021/12/11 10:56:41;;;;;;;3.70;1.35;;;;;;;12.53;80.50;150802.69;1741169;80;21069;-69
2021/12/11 10:59:17;;;;;;;9.45;2.02;;;;;;;12.57;79.94;150811.75;1740318;80;21507;-66
2021/12/11 11:02:01;;;;;;;7.62;2.27;;;;;;;12.60;80.09;150819.59;1743780;80;26569;-67
2021/12/11 11:04:32;;;;;;;8.78;2.00;;;;;;;12.58;80.03;150815.67;1735750;80;21104;-67
2021/12/11 11:07:01;;;;;;;6.80;1.80;;;;;;;12.55;79.95;150806.56;1731888;80;21064;-66
2021/12/11 11:09:28;;;;;;;5.37;1.75;;;;;;;12.48;79.54;150789.66;1740352;80;21147;-68
2021/12/11 11:11:57;;;;;;;7.47;1.80;;;;;;;12.35;79.25;150755.91;1755792;80;20980;-67
2021/12/11 11:14:25;;;;;;;4.97;1.55;;;;;;;12.26;79.25;150733.81;1708507;80;21126;-67
2021/12/11 11:16:56;;;;;;;5.47;1.80;;;;;;;12.16;79.48;150710.44;1736057;80;21796;-66
2021/12/11 11:19:25;;;;;;;6.12;1.70;;;;;;;12.11;79.98;150696.14;1736087;80;21056;-67
2021/12/11 11:21:58;;;;;;;2.95;1.47;;;;;;;12.09;80.20;150690.95;1717332;80;21633;-67
2021/12/11 11:24:29;;;;;;;6.03;2.57;;;;;;;12.03;80.35;150677.92;1713533;80;20989;-66
2021/12/11 11:26:56;;;;;;;7.00;2.52;;;;;;;12.00;80.73;150670.09;1738314;80;21140;-67
2021/12/11 11:29:25;;;;;;;6.30;2.25;;;;;;;12.04;81.18;150680.53;1739397;80;21920;-66
2021/12/11 11:31:57;;;;;;;7.35;1.67;;;;;;;12.07;81.42;150685.77;1748413;80;21050;-66
2021/12/11 11:34:26;;;;;;;5.55;1.98;;;;;;;12.08;81.49;150689.63;1746351;80;21075;-67
2021/12/11 11:36:54;;;;;;;5.83;1.85;;;;;;;12.14;81.39;150703.94;1748582;80;21064;-67
2021/12/11 11:39:21;;;;;;;4.70;2.08;;;;;;;12.12;81.20;150700.02;1738477;80;21061;-65
2021/12/11 11:41:56;;;;;;;5.03;1.90;;;;;;;12.07;81.03;150687.03;1746389;80;21071;-66
2021/12/11 11:44:25;;;;;;;6.25;2.10;;;;;;;11.99;80.99;150666.22;1751150;80;21500;-67
2021/12/11 11:46:52;;;;;;;5.25;2.02;;;;;;;11.95;81.23;150655.84;1747078;80;21131;-67
2021/12/11 11:49:19;;;;;;;7.78;2.50;;;;;;;11.92;81.53;150649.33;1743900;80;21410;-68
2021/12/11 11:51:51;;;;;;;6.97;2.00;;;;;;;11.88;81.63;150640.22;1751579;80;21138;-67